Time,TemperatureF,DewpointF,PressureIn,WindDirection,WindDirectionDegrees,WindSpeedMPH,WindSpeedGustMPH,Humidity,HourlyPrecipIn,Conditions,Clouds,dailyrainin,SoftwareType,DateUTC
2013-02-02 00:18:00,45.1,33.0,30.26,SE,145,2.0,3.0,62,0.00,,,0.00,weatherlink.com 1.10,2013-02-02 08:18:00,
2013-02-02 00:34:00,45.1,33.0,30.26,SE,135,2.0,4.0,62,0.00,,,0.00,weatherlink.com 1.10,2013-02-02 08:34:00,
2013-02-02 00:49:00,45.4,33.0,30.27,SE,136,2.0,3.0,62,0.00,,,0.00,weatherlink.com 1.10,2013-02-02 08:49:00,
2013-02-02 01:04:00,45.6,33.0,30.26,SE,141,1.0,3.0,61,0.00,,,0.00,weatherlink.com 1.10,2013-02-02 09:04:00,
2013-02-02 01:19:00,46.0,33.0,30.25,SSE,151,1.0,3.0,60,0.00,,,0.00,weatherlink.com 1.10,2013-02-02 09:19:00,
2013-02-02 01:34:00,46.1,33.0,30.26,SSE,155,0.0,2.0,61,0.00,,,0.00,weatherlink.com 1.10,2013-02-02 09:34:00,
2013-02-02 01:49:00,46.3,33.0,30.25,SSE,153,2.0,3.0,61,0.00,,,0.00,weatherlink.com 1.10,2013-02-02 09:49:00,
2013-02-02 02:04:00,46.4,33.0,30.25,SSE,148,1.0,2.0,61,0.00,,,0.00,weatherlink.com 1.10,2013-02-02 10:04:00,
2013-02-02 02:19:00,46.8,33.0,30.25,SSE,150,0.0,3.0,59,0.00,,,0.00,weatherlink.com 1.10,2013-02-02 10:19:00,
2013-02-02 02:34:00,46.5,34.0,30.24,SE,141,2.0,3.0,61,0.00,,,0.00,weatherlink.com 1.10,2013-02-02 10:34:00,
2013-02-02 02:49:00,46.9,33.0,30.25,SSE,151,1.0,3.0,59,0.00,,,0.00,weatherlink.com 1.10,2013-02-02 10:49:00,
2013-02-02 03:04:00,46.5,34.0,30.24,SSE,153,2.0,2.0,61,0.00,,,0.00,weatherlink.com 1.10,2013-02-02 11:04:00,
2013-02-02 03:19:00,46.9,33.0,30.25,SE,139,1.0,3.0,60,0.00,,,0.00,weatherlink.com 1.10,2013-02-02 11:19:00,
2013-02-02 03:34:00,47.2,33.0,30.25,SSE,153,1.0,5.0,59,0.00,,,0.00,weatherlink.com 1.10,2013-02-02 11:34:00,
2013-02-02 03:50:00,46.7,34.0,30.24,SE,146,1.0,3.0,61,0.00,,,0.00,weatherlink.com 1.10,2013-02-02 11:50:00,
2013-02-02 04:04:00,47.0,33.0,30.24,SE,145,1.0,2.0,59,0.00,,,0.00,weatherlink.com 1.10,2013-02-02 12:04:00,
2013-02-02 04:19:00,47.2,34.0,30.24,SSE,150,1.0,2.0,61,0.00,,,0.00,weatherlink.com 1.10,2013-02-02 12:19:00,
2013-02-02 04:34:00,47.2,34.0,30.24,SE,143,1.0,2.0,60,0.00,,,0.00,weatherlink.com 1.10,2013-02-02 12:34:00,
2013-02-02 04:49:00,47.0,34.0,30.24,SSE,148,1.0,2.0,62,0.00,,,0.00,weatherlink.com 1.10,2013-02-02 12:49:00,
2013-02-02 05:04:00,47.0,32.0,30.24,South,174,0.0,0.0,57,0.00,,,0.00,weatherlink.com 1.10,2013-02-02 13:04:00,
2013-02-02 05:19:00,46.9,33.0,30.24,SSE,152,0.0,3.0,60,0.00,,,0.00,weatherlink.com 1.10,2013-02-02 13:19:00,
2013-02-02 05:34:00,47.1,33.0,30.23,SSE,148,0.0,0.0,59,0.00,,,0.00,weatherlink.com 1.10,2013-02-02 13:34:00,
2013-02-02 05:49:00,46.7,33.0,30.24,SSE,148,0.0,0.0,59,0.00,,,0.00,weatherlink.com 1.10,2013-02-02 13:49:00,
2013-02-02 06:04:00,46.6,33.0,30.25,SSE,165,0.0,0.0,60,0.00,,,0.00,weatherlink.com 1.10,2013-02-02 14:04:00,
2013-02-02 06:19:00,46.0,33.0,30.25,SSE,158,0.0,0.0,61,0.00,,,0.00,weatherlink.com 1.10,2013-02-02 14:19:00,
2013-02-02 06:34:00,45.9,33.0,30.26,SE,142,2.0,3.0,62,0.00,,,0.00,weatherlink.com 1.10,2013-02-02 14:34:00,
2013-02-02 06:49:00,46.0,32.0,30.26,SSE,148,1.0,2.0,59,0.00,,,0.00,weatherlink.com 1.10,2013-02-02 14:49:00,
2013-02-02 07:04:00,46.3,32.0,30.26,SSE,154,1.0,2.0,59,0.00,,,0.00,weatherlink.com 1.10,2013-02-02 15:04:00,
2013-02-02 07:19:00,46.9,32.0,30.26,ESE,115,0.0,2.0,57,0.00,,,0.00,weatherlink.com 1.10,2013-02-02 15:19:00,
2013-02-02 07:34:00,47.6,34.0,30.27,SSE,161,0.0,1.0,59,0.00,,,0.00,weatherlink.com 1.10,2013-02-02 15:34:00,
2013-02-02 07:49:00,48.1,34.0,30.27,SSE,165,0.0,2.0,59,0.00,,,0.00,weatherlink.com 1.10,2013-02-02 15:49:00,
2013-02-02 08:04:00,49.0,36.0,30.27,SE,146,0.0,0.0,62,0.00,,,0.00,weatherlink.com 1.10,2013-02-02 16:04:00,
2013-02-02 08:19:00,49.4,37.0,30.27,SE,139,1.0,1.0,63,0.00,,,0.00,weatherlink.com 1.10,2013-02-02 16:19:00,
2013-02-02 08:34:00,50.1,38.0,30.27,SSE,158,0.0,1.0,64,0.00,,,0.00,weatherlink.com 1.10,2013-02-02 16:34:00,
2013-02-02 08:49:00,51.2,39.0,30.27,SE,143,0.0,2.0,64,0.00,,,0.00,weatherlink.com 1.10,2013-02-02 16:49:00,
2013-02-02 09:04:00,52.2,41.0,30.27,SE,139,0.0,0.0,66,0.00,,,0.00,weatherlink.com 1.10,2013-02-02 17:04:00,
2013-02-02 09:19:00,53.2,42.0,30.27,SSE,152,0.0,0.0,66,0.00,,,0.00,weatherlink.com 1.10,2013-02-02 17:19:00,
2013-02-02 09:34:00,53.9,43.0,30.27,SSE,163,0.0,0.0,66,0.00,,,0.00,weatherlink.com 1.10,2013-02-02 17:34:00,
2013-02-02 09:50:00,54.6,43.0,30.27,SSE,162,0.0,0.0,66,0.00,,,0.00,weatherlink.com 1.10,2013-02-02 17:50:00,
2013-02-02 10:05:00,55.3,44.0,30.27,SSE,162,0.0,0.0,66,0.00,,,0.00,weatherlink.com 1.10,2013-02-02 18:05:00,
2013-02-02 10:20:00,56.3,44.0,30.26,SSE,162,0.0,0.0,63,0.00,,,0.00,weatherlink.com 1.10,2013-02-02 18:20:00,
2013-02-02 10:35:00,58.4,37.0,30.25,West,263,0.0,0.0,45,0.00,,,0.00,weatherlink.com 1.10,2013-02-02 18:35:00,
2013-02-02 10:50:00,59.3,39.0,30.25,South,169,0.0,0.0,47,0.00,,,0.00,weatherlink.com 1.10,2013-02-02 18:50:00,
2013-02-02 11:05:00,58.6,39.0,30.25,South,188,0.0,0.0,49,0.00,,,0.00,weatherlink.com 1.10,2013-02-02 19:05:00,
2013-02-02 11:20:00,58.8,40.0,30.25,NNE,22,0.0,2.0,50,0.00,,,0.00,weatherlink.com 1.10,2013-02-02 19:20:00,
2013-02-02 11:35:00,60.4,31.0,30.24,NE,41,1.0,5.0,33,0.00,,,0.00,weatherlink.com 1.10,2013-02-02 19:35:00,
2013-02-02 11:50:00,60.0,32.0,30.23,NE,56,2.0,5.0,35,0.00,,,0.00,weatherlink.com 1.10,2013-02-02 19:50:00,
2013-02-02 12:05:00,60.8,32.0,30.22,NW,308,3.0,6.0,34,0.00,,,0.00,weatherlink.com 1.10,2013-02-02 20:05:00,
2013-02-02 12:20:00,61.5,31.0,30.21,NNE,28,2.0,5.0,32,0.00,,,0.00,weatherlink.com 1.10,2013-02-02 20:20:00,
2013-02-02 12:35:00,62.0,32.0,30.21,ENE,69,4.0,8.0,32,0.00,,,0.00,weatherlink.com 1.10,2013-02-02 20:35:00,
2013-02-02 12:50:00,61.6,31.0,30.20,NW,314,6.0,9.0,32,0.00,,,0.00,weatherlink.com 1.10,2013-02-02 20:50:00,
2013-02-02 13:05:00,60.4,31.0,30.20,NE,46,5.0,8.0,33,0.00,,,0.00,weatherlink.com 1.10,2013-02-02 21:05:00,
2013-02-02 13:20:00,60.9,31.0,30.19,NE,48,5.0,7.0,33,0.00,,,0.00,weatherlink.com 1.10,2013-02-02 21:20:00,
2013-02-02 13:35:00,60.8,31.0,30.18,ENE,58,3.0,5.0,33,0.00,,,0.00,weatherlink.com 1.10,2013-02-02 21:35:00,
2013-02-02 13:50:00,60.9,32.0,30.18,NE,53,3.0,5.0,34,0.00,,,0.00,weatherlink.com 1.10,2013-02-02 21:50:00,
2013-02-02 14:05:00,61.4,31.0,30.17,ENE,63,0.0,5.0,32,0.00,,,0.00,weatherlink.com 1.10,2013-02-02 22:05:00,
2013-02-02 14:20:00,61.4,32.0,30.17,SSW,194,0.0,1.0,33,0.00,,,0.00,weatherlink.com 1.10,2013-02-02 22:20:00,
2013-02-02 14:35:00,60.9,36.0,30.17,NNE,27,0.0,2.0,39,0.00,,,0.00,weatherlink.com 1.10,2013-02-02 22:35:00,
2013-02-02 14:50:00,60.8,32.0,30.18,NNW,345,3.0,5.0,34,0.00,,,0.00,weatherlink.com 1.10,2013-02-02 22:50:00,
2013-02-02 15:05:00,60.1,37.0,30.18,SSW,205,0.0,1.0,42,0.00,,,0.00,weatherlink.com 1.10,2013-02-02 23:05:00,
2013-02-02 15:20:00,60.0,33.0,30.18,West,267,0.0,2.0,36,0.00,,,0.00,weatherlink.com 1.10,2013-02-02 23:20:00,
2013-02-02 15:35:00,59.1,39.0,30.18,ESE,110,0.0,0.0,48,0.00,,,0.00,weatherlink.com 1.10,2013-02-02 23:35:00,
2013-02-02 15:50:00,57.2,41.0,30.17,South,188,0.0,0.0,55,0.00,,,0.00,weatherlink.com 1.10,2013-02-02 23:50:00,
2013-02-02 16:05:00,56.0,42.0,30.18,South,188,0.0,0.0,59,0.00,,,0.00,weatherlink.com 1.10,2013-02-03 00:05:00,
2013-02-02 16:20:00,55.0,42.0,30.17,South,186,0.0,0.0,62,0.00,,,0.00,weatherlink.com 1.10,2013-02-03 00:20:00,
2013-02-02 16:35:00,54.3,41.0,30.17,SSE,149,0.0,0.0,62,0.00,,,0.00,weatherlink.com 1.10,2013-02-03 00:35:00,
2013-02-02 16:50:00,53.7,42.0,30.18,SSE,153,0.0,0.0,66,0.00,,,0.00,weatherlink.com 1.10,2013-02-03 00:50:00,
2013-02-02 17:05:00,53.0,42.0,30.19,SSE,162,0.0,0.0,66,0.00,,,0.00,weatherlink.com 1.10,2013-02-03 01:05:00,
2013-02-02 17:20:00,52.5,41.0,30.18,SSE,162,0.0,0.0,66,0.00,,,0.00,weatherlink.com 1.10,2013-02-03 01:20:00,
2013-02-02 17:35:00,51.9,40.0,30.18,SSE,159,0.0,0.0,63,0.00,,,0.00,weatherlink.com 1.10,2013-02-03 01:35:00,
2013-02-02 17:50:00,51.5,39.0,30.18,SE,146,0.0,0.0,62,0.00,,,0.00,weatherlink.com 1.10,2013-02-03 01:50:00,
2013-02-02 18:05:00,51.6,38.0,30.18,SSE,150,2.0,3.0,60,0.00,,,0.00,weatherlink.com 1.10,2013-02-03 02:05:00,
2013-02-02 18:21:00,51.8,36.0,30.18,SE,136,1.0,3.0,55,0.00,,,0.00,weatherlink.com 1.10,2013-02-03 02:21:00,
2013-02-02 18:36:00,50.8,35.0,30.19,SE,139,2.0,2.0,55,0.00,,,0.00,weatherlink.com 1.10,2013-02-03 02:36:00,
2013-02-02 18:51:00,50.9,35.0,30.19,SSE,158,2.0,3.0,56,0.00,,,0.00,weatherlink.com 1.10,2013-02-03 02:51:00,
2013-02-02 19:06:00,51.0,35.0,30.19,SSE,151,1.0,3.0,55,0.00,,,0.00,weatherlink.com 1.10,2013-02-03 03:06:00,
2013-02-02 19:21:00,51.4,36.0,30.20,SSE,166,0.0,1.0,55,0.00,,,0.00,weatherlink.com 1.10,2013-02-03 03:21:00,
2013-02-02 19:36:00,50.7,36.0,30.20,SSE,148,0.0,0.0,58,0.00,,,0.00,weatherlink.com 1.10,2013-02-03 03:36:00,
2013-02-02 19:51:00,50.6,36.0,30.20,SSE,148,0.0,0.0,58,0.00,,,0.00,weatherlink.com 1.10,2013-02-03 03:51:00,
2013-02-02 20:06:00,50.9,37.0,30.20,SE,139,2.0,3.0,59,0.00,,,0.00,weatherlink.com 1.10,2013-02-03 04:06:00,
2013-02-02 20:21:00,50.4,36.0,30.20,SSE,155,2.0,2.0,59,0.00,,,0.00,weatherlink.com 1.10,2013-02-03 04:21:00,
2013-02-02 20:36:00,50.3,36.0,30.20,SSE,159,1.0,2.0,58,0.00,,,0.00,weatherlink.com 1.10,2013-02-03 04:36:00,
2013-02-02 20:51:00,50.2,36.0,30.20,SSE,150,1.0,1.0,58,0.00,,,0.00,weatherlink.com 1.10,2013-02-03 04:51:00,
2013-02-02 21:06:00,50.2,36.0,30.20,SSE,161,1.0,2.0,59,0.00,,,0.00,weatherlink.com 1.10,2013-02-03 05:06:00,
2013-02-02 21:21:00,49.9,35.0,30.19,SSE,155,0.0,2.0,57,0.00,,,0.00,weatherlink.com 1.10,2013-02-03 05:21:00,
2013-02-02 21:36:00,50.0,35.0,30.19,SSE,159,1.0,1.0,57,0.00,,,0.00,weatherlink.com 1.10,2013-02-03 05:36:00,
2013-02-02 21:51:00,50.0,35.0,30.19,SSE,153,0.0,0.0,57,0.00,,,0.00,weatherlink.com 1.10,2013-02-03 05:51:00,
2013-02-02 22:06:00,50.1,36.0,30.18,SE,139,0.0,0.0,58,0.00,,,0.00,weatherlink.com 1.10,2013-02-03 06:06:00,
2013-02-02 22:21:00,50.3,35.0,30.18,SE,143,0.0,0.0,57,0.00,,,0.00,weatherlink.com 1.10,2013-02-03 06:21:00,
2013-02-02 22:36:00,50.3,37.0,30.18,SE,135,2.0,2.0,60,0.00,,,0.00,weatherlink.com 1.10,2013-02-03 06:36:00,
2013-02-02 22:51:00,50.3,35.0,30.17,SSE,148,1.0,3.0,56,0.00,,,0.00,weatherlink.com 1.10,2013-02-03 06:51:00,
2013-02-02 23:06:00,50.3,34.0,30.17,SSE,158,1.0,2.0,53,0.00,,,0.00,weatherlink.com 1.10,2013-02-03 07:06:00,
2013-02-02 23:22:00,50.2,35.0,30.17,SSE,155,2.0,3.0,57,0.00,,,0.00,weatherlink.com 1.10,2013-02-03 07:22:00,
2013-02-02 23:36:00,49.6,37.0,30.18,SSE,151,1.0,2.0,63,0.00,,,0.00,weatherlink.com 1.10,2013-02-03 07:36:00,
2013-02-02 23:51:00,47.9,41.0,30.17,SE,139,1.0,2.0,77,0.00,,,0.00,weatherlink.com 1.10,2013-02-03 07:51:00,